Volzhskiy, Russia
Current Conditions -  °F | °C
As of 7:30 PM on Thursday 23 Oct 2014 (Local Time) from URWW Reporting Station
Clear Clear  
Wind Chill: 16°   Ceiling: Unl
Heat Index: 27°   Visibility: 6mi
Dew Point: 21°   Wind: 11mph
Humidity: 80%   Direction: 20°NNE
Pressure: 30.15"   Gusts: NA
Location:  48.79°N, 44.77°E
Report Text: URWW 231630Z 02005MPS CAVOK M03/M06 Q1021 NOSIG RMK SC070
Loading
Personal Weather Stations






























Interactive Weather Map
Tropical Storm Tracking
New forecast layout! Learn more

10-Day Weather Forecast

Advertisements
Track Severe Weather on mobile